createdAt,value
2024-03-16T00:02:10.145Z,20.52
2024-03-16T00:04:44.208Z,23.00
2024-03-16T00:07:16.257Z,18.55
2024-03-16T00:09:48.278Z,24.92
2024-03-16T00:12:20.239Z,20.60
2024-03-16T00:14:52.198Z,24.75
2024-03-16T00:17:24.265Z,20.05
2024-03-16T00:19:56.380Z,22.25
2024-03-16T00:22:28.359Z,16.58
2024-03-16T00:25:01.425Z,24.38
2024-03-16T00:27:37.223Z,21.87
2024-03-16T00:30:11.410Z,20.20
2024-03-16T00:32:43.452Z,25.90
2024-03-16T00:35:15.453Z,22.83
2024-03-16T00:37:48.156Z,20.60
2024-03-16T00:40:20.877Z,23.38
2024-03-16T00:42:53.235Z,25.80
2024-03-16T00:45:25.255Z,18.45
2024-03-16T00:47:57.589Z,22.48
2024-03-16T00:50:29.711Z,22.88
2024-03-16T00:53:01.699Z,22.60
2024-03-16T00:55:36.550Z,21.58
2024-03-16T00:58:08.780Z,20.17
2024-03-16T01:00:41.540Z,22.65
2024-03-16T01:03:14.014Z,29.42
2024-03-16T01:05:45.983Z,27.02
2024-03-16T01:08:17.895Z,24.67
2024-03-16T01:10:56.204Z,24.45
2024-03-16T01:13:28.542Z,25.00
2024-03-16T01:16:00.678Z,27.67
2024-03-16T01:18:32.780Z,27.23
2024-03-16T01:21:07.158Z,27.50
2024-03-16T01:23:39.574Z,32.00
2024-03-16T01:26:11.567Z,26.98
2024-03-16T01:28:43.585Z,21.38
2024-03-16T01:31:15.724Z,24.10
2024-03-16T01:33:47.876Z,24.48
2024-03-16T01:36:20.409Z,28.50
2024-03-16T01:38:52.395Z,25.83
2024-03-16T01:41:28.248Z,22.90
2024-03-16T01:44:17.857Z,28.48
2024-03-16T01:46:49.959Z,25.55
2024-03-16T01:49:22.934Z,26.05
2024-03-16T01:51:54.913Z,25.58
2024-03-16T01:54:26.956Z,27.85
2024-03-16T01:56:58.999Z,29.70
2024-03-16T01:59:30.974Z,29.55
2024-03-16T02:02:04.849Z,30.08
2024-03-16T02:04:36.837Z,30.42
2024-03-16T02:07:10.457Z,28.02
2024-03-16T02:09:42.667Z,34.70
2024-03-16T02:12:14.730Z,33.42
2024-03-16T02:14:46.681Z,34.15
2024-03-16T02:17:18.701Z,31.23
2024-03-16T02:19:50.713Z,28.70
2024-03-16T02:22:24.799Z,28.73
2024-03-16T02:24:57.797Z,29.38
2024-03-16T02:27:30.060Z,35.20
2024-03-16T02:30:02.084Z,29.98
2024-03-16T02:32:34.690Z,31.10
2024-03-16T02:35:10.068Z,33.35
2024-03-16T02:37:42.112Z,32.17
2024-03-16T02:40:14.631Z,34.83
2024-03-16T02:42:46.808Z,31.63
2024-03-16T02:45:18.880Z,29.58
2024-03-16T02:47:51.014Z,32.22
2024-03-16T02:50:23.078Z,35.40
2024-03-16T02:52:56.401Z,33.40
2024-03-16T02:55:28.379Z,33.88
2024-03-16T02:58:00.381Z,33.03
2024-03-16T03:00:32.461Z,32.55
2024-03-16T03:03:05.164Z,37.95
2024-03-16T03:05:37.221Z,32.05
2024-03-16T03:08:09.321Z,31.23
2024-03-16T03:10:42.744Z,30.80
2024-03-16T03:13:15.017Z,31.02
2024-03-16T03:15:50.129Z,32.75
2024-03-16T03:18:25.568Z,32.25
2024-03-16T03:20:57.632Z,33.05
2024-03-16T03:23:29.590Z,32.28
2024-03-16T03:26:01.574Z,28.35
2024-03-16T03:28:33.597Z,30.90
2024-03-16T03:31:07.666Z,29.00
2024-03-16T03:33:41.340Z,30.13
2024-03-16T03:36:13.565Z,29.80
2024-03-16T03:38:45.593Z,32.15
2024-03-16T03:41:19.711Z,29.63
2024-03-16T03:44:00.913Z,32.95
2024-03-16T03:46:51.892Z,37.40
2024-03-16T03:49:27.861Z,35.10
2024-03-16T03:52:00.599Z,35.35
2024-03-16T03:54:35.798Z,40.72
2024-03-16T03:57:08.001Z,40.45
2024-03-16T03:59:39.933Z,44.47
2024-03-16T04:02:11.874Z,49.42
2024-03-16T04:04:43.933Z,39.45
2024-03-16T04:07:15.909Z,39.70
2024-03-16T04:09:50.317Z,40.45
2024-03-16T04:12:22.403Z,41.17
2024-03-16T04:14:54.775Z,54.45
2024-03-16T04:17:26.828Z,50.03
2024-03-16T04:19:59.027Z,46.53
2024-03-16T04:22:31.037Z,42.78
2024-03-16T04:25:04.916Z,38.55
2024-03-16T04:27:37.585Z,43.20
2024-03-16T04:30:10.456Z,38.53
2024-03-16T04:32:42.513Z,37.78
2024-03-16T04:35:14.625Z,42.03
2024-03-16T04:37:46.556Z,37.90
2024-03-16T04:40:18.616Z,44.80
2024-03-16T04:42:51.312Z,43.42
2024-03-16T04:45:23.816Z,40.53
2024-03-16T04:47:55.760Z,43.88
2024-03-16T04:50:27.788Z,40.70
2024-03-16T04:52:59.743Z,41.05
2024-03-16T04:55:32.238Z,42.33
2024-03-16T04:58:05.875Z,39.78
2024-03-16T05:00:37.889Z,38.22
2024-03-16T05:03:11.102Z,38.67
2024-03-16T05:05:43.105Z,38.20
2024-03-16T05:08:15.069Z,40.60
2024-03-16T05:10:53.595Z,42.20
2024-03-16T05:13:29.629Z,46.30
2024-03-16T05:16:09.089Z,42.47
2024-03-16T05:18:41.396Z,43.72
2024-03-16T05:21:13.876Z,43.88
2024-03-16T05:23:46.896Z,49.72
2024-03-16T05:26:18.929Z,47.42
2024-03-16T05:28:51.285Z,51.10
2024-03-16T05:31:23.653Z,47.17
2024-03-16T05:33:55.879Z,48.28
2024-03-16T05:36:29.915Z,54.15
2024-03-16T05:39:02.021Z,53.85
2024-03-16T05:41:33.959Z,51.60
2024-03-16T05:44:05.978Z,49.05
2024-03-16T05:46:37.927Z,49.78
2024-03-16T05:49:10.234Z,51.20
2024-03-16T05:51:42.627Z,58.42
2024-03-16T05:54:14.854Z,55.70
2024-03-16T05:56:47.190Z,58.40
2024-03-16T05:59:19.082Z,60.10
2024-03-16T06:01:51.039Z,55.47
2024-03-16T06:04:23.034Z,65.97
2024-03-16T06:06:55.015Z,63.08
2024-03-16T06:09:30.129Z,61.45
2024-03-16T06:12:02.250Z,64.20
2024-03-16T06:14:35.324Z,65.03
2024-03-16T06:17:07.766Z,64.85
2024-03-16T06:19:40.156Z,63.33
2024-03-16T06:22:13.461Z,63.30
2024-03-16T06:24:48.472Z,63.47
2024-03-16T06:27:22.762Z,58.22
2024-03-16T06:29:56.543Z,58.88
2024-03-16T06:32:29.889Z,65.03
2024-03-16T06:35:01.898Z,54.05
2024-03-16T06:37:33.975Z,57.42
2024-03-16T06:40:06.829Z,58.00
2024-03-16T06:42:38.875Z,55.13
2024-03-16T06:45:10.874Z,60.47
2024-03-16T06:47:42.939Z,59.03
2024-03-16T06:50:15.230Z,62.97
2024-03-16T06:52:47.211Z,58.17
2024-03-16T06:55:20.228Z,60.55
2024-03-16T06:57:52.457Z,60.88
2024-03-16T07:00:25.575Z,51.60
2024-03-16T07:02:57.629Z,58.78
2024-03-16T07:05:29.762Z,53.33
2024-03-16T07:08:01.788Z,51.20
2024-03-16T07:10:33.819Z,53.67
2024-03-16T07:13:07.005Z,50.55
2024-03-16T07:15:40.542Z,92.80
2024-03-16T07:18:13.407Z,136.55
2024-03-16T07:20:47.679Z,110.85
2024-03-16T07:23:19.726Z,54.55
2024-03-16T07:25:51.707Z,61.72
2024-03-16T07:28:24.281Z,53.38
2024-03-16T07:30:59.696Z,57.60
2024-03-16T07:33:31.874Z,53.97
2024-03-16T07:36:05.264Z,56.40
2024-03-16T07:38:37.300Z,53.85
2024-03-16T07:41:10.082Z,52.83
2024-03-16T07:43:44.974Z,56.40
2024-03-16T07:46:17.188Z,54.25
2024-03-16T07:48:50.324Z,49.78
2024-03-16T07:51:26.257Z,53.83
2024-03-16T07:53:59.278Z,58.17
2024-03-16T07:56:31.215Z,58.40
2024-03-16T07:59:03.310Z,63.55
2024-03-16T08:01:35.457Z,58.75
2024-03-16T08:04:07.515Z,59.50
2024-03-16T08:06:39.538Z,60.08
2024-03-16T08:09:13.026Z,59.72
2024-03-16T08:11:45.128Z,63.35
2024-03-16T08:14:17.797Z,70.25
2024-03-16T08:16:51.657Z,64.25
2024-03-16T08:19:23.719Z,64.45
2024-03-16T08:21:55.691Z,68.13
2024-03-16T08:24:27.806Z,68.07
2024-03-16T08:26:59.785Z,71.07
2024-03-16T08:29:31.720Z,81.22
2024-03-16T08:32:03.913Z,74.05
2024-03-16T08:34:36.101Z,75.00
2024-03-16T08:37:08.173Z,72.00
2024-03-16T08:39:40.507Z,67.75
2024-03-16T08:42:14.136Z,69.90
2024-03-16T08:44:46.265Z,73.72
2024-03-16T08:47:18.260Z,72.25
2024-03-16T08:49:50.282Z,72.03
2024-03-16T08:52:23.836Z,75.53
2024-03-16T08:54:57.202Z,78.20
2024-03-16T08:57:29.267Z,77.55
2024-03-16T09:00:01.315Z,76.40
2024-03-16T09:02:33.255Z,78.45
2024-03-16T09:05:09.447Z,70.45
2024-03-16T09:07:41.383Z,70.20
2024-03-16T09:10:13.776Z,71.60
2024-03-16T09:12:48.227Z,72.15
2024-03-16T09:15:21.061Z,71.50
2024-03-16T09:17:53.022Z,74.45
2024-03-16T09:20:25.051Z,74.68
2024-03-16T09:22:58.932Z,76.75
2024-03-16T09:25:31.705Z,75.03
2024-03-16T09:28:03.950Z,74.78
2024-03-16T09:30:36.305Z,74.65
2024-03-16T09:33:08.322Z,76.63
2024-03-16T09:35:40.368Z,76.00
2024-03-16T09:38:13.428Z,72.00
2024-03-16T09:40:53.180Z,70.82
